Airport details for: LCRA (Cyprus)

Metar

LCRA 152050Z 05001KT CAVOK 12/10 Q1021 NOSIG

General details

ICAO: LCRA
IATA: AKT
Name (city): Akrotiri
Major:
Country: Cyprus
vACC: Hellenic vACC
Description:

Royal Air Force Akrotiri or more simply RAF Akrotiri (IATA: AKT, ICAO: LCRA) is a large Royal Air Force station, on the Mediterranean island of Cyprus. It is located in the Western Sovereign Base Area, one of two areas which comprise Akrotiri and Dhekelia, a British Overseas Territory, administered as a Sovereign Base Area.

Scenery links:
FS9 scenery:
FSX/P3D scenery:
XP scenery:
Elevation: 76 ft.
Transition altitude: 8000 ft.
MSA: 8900 ft.
Latitude: 34.590333
Longitude: 32.987834
LCRA Charts
LCRA Notams
LCRA Online stations

Runways

Number Course Length Elevation Lat Lon ILS ILS freq ILS FAC GP
10 103° 8990ft / 2740 m 71ft 34.594133 32.973553 - - 3.0°
28 283° 8990ft / 2740 m 74ft 34.586642 33.002014 109.7 283° 3.0°